KPHP

Philip Airport

Philip, South Dakota, USA
METAR KPHP 241455Z AUTO 30003KT 10SM CLR 18/17 A2990 RMK AO2 SLP111 T01830167 52017
Observed Flight Rules
Jun-24 @ 14:55 UTC (10 minutes ago) Visual Flight Rules
Wind Visibility Clouds
300° at 3 knots 10 miles
  • Clear skies
Temperatures Readings
Current 18°C / 64°F
Dewpoint 17°C / 63°F
Humidity 94%
Altimeter 29.9" Hg
Pressure 1011.1 hPa
Elevation 672
METAR KPHP 241455Z AUTO 30003KT 10SM CLR 18/17 A2990 RMK AO2 SLP111 T01830167 52017
Observed Flight Rules
Jun-24 @ 14:55 UTC
(10 minutes ago)
VFR
Wind Visibility
300° at 3 knots 10 miles
Clouds
  • Clear skies
Temperature Dewpoint
18°C / 64°F 17°C / 63°F
Humidity Altimeter Pressure
94% 29.9" Hg 1011.1 hPa